Doyon, North Dakota
Current Conditions -  °F | °C
As of 6:15 AM on Friday 24 Oct 2014 (Local Time) from KDVL Reporting Station
Clear Clear  
Wind Chill: 44°   Ceiling: Unl
Heat Index: 48°   Visibility: 10mi
Dew Point: 36°   Wind: 9mph
Humidity: 62%   Direction: 240°WSW
Pressure: 29.74"   Gusts: NA
Location:  48.0187°N, 98.6029°W
Report Text: KDVL 241115Z AUTO 24008KT 10SM CLR 09/02 A2974 RMK AO1
Loading
Personal Weather Stations






























Interactive Weather Map New forecast layout! Learn more

10-Day Weather Forecast

Advertisements
Track Severe Weather on mobile